createdAt,value
2022-12-31T00:02:24.349Z,4.50
2022-12-31T00:04:51.558Z,3.95
2022-12-31T00:07:20.422Z,4.72
2022-12-31T00:09:48.154Z,4.15
2022-12-31T00:12:15.427Z,4.05
2022-12-31T00:14:42.610Z,3.85
2022-12-31T00:17:09.860Z,4.00
2022-12-31T00:19:37.072Z,4.45
2022-12-31T00:22:04.279Z,4.13
2022-12-31T00:24:33.544Z,3.80
2022-12-31T00:27:03.309Z,3.72
2022-12-31T00:29:30.448Z,4.00
2022-12-31T00:31:57.547Z,3.83
2022-12-31T00:34:24.717Z,3.67
2022-12-31T00:36:52.874Z,3.70
2022-12-31T00:39:20.013Z,4.00
2022-12-31T00:41:47.066Z,4.25
2022-12-31T00:44:14.190Z,4.03
2022-12-31T00:49:07.485Z,3.60
2022-12-31T00:51:34.791Z,3.53
2022-12-31T00:54:02.149Z,4.00
2022-12-31T00:56:30.885Z,3.85
2022-12-31T00:58:58.839Z,3.45
2022-12-31T01:01:33.636Z,3.67
2022-12-31T01:04:05.277Z,3.10
2022-12-31T01:06:32.520Z,3.17
2022-12-31T01:08:59.769Z,3.60
2022-12-31T01:11:29.604Z,3.50
2022-12-31T01:14:01.681Z,3.97
2022-12-31T01:16:40.239Z,3.25
2022-12-31T01:19:09.306Z,3.78
2022-12-31T01:21:37.099Z,3.60
2022-12-31T01:24:04.695Z,3.15
2022-12-31T01:26:32.202Z,3.60
2022-12-31T01:28:59.357Z,3.58
2022-12-31T01:31:26.631Z,3.55
2022-12-31T01:33:54.350Z,3.30
2022-12-31T01:36:25.967Z,3.00
2022-12-31T01:38:55.066Z,3.00
2022-12-31T01:41:28.336Z,2.90
2022-12-31T01:43:59.817Z,4.60
2022-12-31T01:46:45.521Z,4.22
2022-12-31T01:49:12.751Z,3.67
2022-12-31T01:51:40.557Z,3.60
2022-12-31T01:54:09.498Z,3.95
2022-12-31T01:56:38.544Z,3.60
2022-12-31T01:59:07.011Z,4.32
2022-12-31T02:01:36.914Z,5.10
2022-12-31T02:04:07.181Z,4.13
2022-12-31T02:06:46.284Z,4.80
2022-12-31T02:09:14.177Z,5.93
2022-12-31T02:11:41.432Z,5.45
2022-12-31T02:14:08.492Z,5.35
2022-12-31T02:16:41.023Z,4.72
2022-12-31T02:19:22.313Z,5.13
2022-12-31T02:21:49.427Z,5.13
2022-12-31T02:24:35.447Z,5.80
2022-12-31T02:27:17.850Z,5.53
2022-12-31T02:30:03.454Z,6.00
2022-12-31T02:32:36.148Z,6.03
2022-12-31T02:35:23.639Z,7.30
2022-12-31T02:37:54.597Z,9.10
2022-12-31T02:40:22.710Z,7.75
2022-12-31T02:42:55.035Z,9.25
2022-12-31T02:45:27.512Z,9.45
2022-12-31T02:48:06.604Z,9.48
2022-12-31T02:50:42.238Z,8.30
2022-12-31T02:53:29.500Z,8.43
2022-12-31T02:56:16.843Z,9.35
2022-12-31T02:59:23.488Z,9.57
2022-12-31T03:02:14.614Z,8.40
2022-12-31T03:04:51.089Z,7.35
2022-12-31T03:07:19.660Z,8.18
2022-12-31T03:09:47.240Z,6.32
2022-12-31T03:12:34.326Z,7.28
2022-12-31T03:15:01.540Z,8.57
2022-12-31T03:17:28.592Z,8.27
2022-12-31T03:20:14.106Z,8.20
2022-12-31T03:22:42.624Z,8.73
2022-12-31T03:25:32.876Z,7.90
2022-12-31T03:28:00.982Z,8.77
2022-12-31T03:30:28.534Z,8.48
2022-12-31T03:32:56.597Z,7.88
2022-12-31T03:35:24.622Z,7.43
2022-12-31T03:37:51.975Z,7.90
2022-12-31T03:40:20.769Z,7.95
2022-12-31T03:42:47.838Z,7.80
2022-12-31T03:45:14.984Z,7.97
2022-12-31T03:47:42.215Z,7.72
2022-12-31T03:50:09.912Z,8.68
2022-12-31T03:52:38.734Z,8.30
2022-12-31T03:55:06.375Z,8.23
2022-12-31T03:57:33.593Z,9.30
2022-12-31T04:00:00.772Z,9.60
2022-12-31T04:02:29.218Z,9.77
2022-12-31T04:04:56.810Z,9.57
2022-12-31T04:07:23.991Z,10.75
2022-12-31T04:09:51.178Z,10.27
2022-12-31T04:12:18.375Z,9.55
2022-12-31T04:14:45.525Z,8.85
2022-12-31T04:17:12.845Z,9.43
2022-12-31T04:19:39.971Z,9.90
2022-12-31T04:22:07.090Z,9.07
2022-12-31T04:24:34.322Z,9.35
2022-12-31T04:27:07.238Z,10.32
2022-12-31T04:29:35.043Z,12.35
2022-12-31T04:32:02.281Z,10.15
2022-12-31T04:34:29.482Z,10.52
2022-12-31T04:36:56.610Z,9.77
2022-12-31T04:39:24.500Z,9.90
2022-12-31T04:41:51.565Z,10.38
2022-12-31T04:44:18.896Z,11.18
2022-12-31T04:46:46.314Z,9.73
2022-12-31T04:49:13.499Z,9.93
2022-12-31T04:51:41.014Z,10.55
2022-12-31T04:54:08.207Z,12.27
2022-12-31T04:56:36.936Z,11.77
2022-12-31T04:59:04.911Z,13.15
2022-12-31T05:01:33.402Z,12.32
2022-12-31T05:04:00.723Z,12.35
2022-12-31T05:06:27.951Z,13.48
2022-12-31T05:08:55.020Z,16.77
2022-12-31T05:11:22.167Z,16.88
2022-12-31T05:13:49.175Z,14.73
2022-12-31T05:16:16.905Z,15.43
2022-12-31T05:18:44.212Z,15.13
2022-12-31T05:21:15.861Z,11.98
2022-12-31T05:23:42.933Z,10.70
2022-12-31T05:26:10.078Z,10.45
2022-12-31T05:28:37.222Z,11.32
2022-12-31T05:31:06.942Z,11.25
2022-12-31T05:33:34.251Z,10.65
2022-12-31T05:36:01.425Z,11.20
2022-12-31T05:38:28.692Z,10.80
2022-12-31T05:41:06.541Z,9.73
2022-12-31T05:43:33.931Z,9.27
2022-12-31T05:46:04.888Z,8.77
2022-12-31T05:48:33.253Z,9.45
2022-12-31T05:51:00.450Z,8.88
2022-12-31T05:53:27.652Z,7.78
2022-12-31T05:55:54.771Z,10.60
2022-12-31T05:58:21.929Z,12.20
2022-12-31T06:00:49.022Z,9.55
2022-12-31T06:03:17.572Z,11.60
2022-12-31T06:05:44.764Z,16.77
2022-12-31T06:08:12.488Z,13.65
2022-12-31T06:10:40.194Z,10.65
2022-12-31T06:13:07.418Z,11.20
2022-12-31T06:15:40.033Z,12.18
2022-12-31T06:18:07.768Z,11.93
2022-12-31T06:20:38.172Z,12.35
2022-12-31T06:23:05.847Z,12.55
2022-12-31T06:25:34.618Z,13.05
2022-12-31T06:28:01.755Z,13.55
2022-12-31T06:30:28.853Z,13.52
2022-12-31T06:32:55.975Z,9.18
2022-12-31T06:35:23.308Z,9.73
2022-12-31T06:37:51.928Z,11.52
2022-12-31T06:40:19.007Z,12.65
2022-12-31T06:42:46.346Z,13.82
2022-12-31T06:45:13.585Z,15.10
2022-12-31T06:47:40.916Z,15.25
2022-12-31T06:50:08.472Z,11.45
2022-12-31T06:52:35.680Z,14.50
2022-12-31T06:55:03.362Z,13.82
2022-12-31T06:57:30.801Z,12.95
2022-12-31T06:59:59.184Z,11.57
2022-12-31T07:02:32.536Z,10.48
2022-12-31T07:05:05.557Z,9.85
2022-12-31T07:07:45.594Z,10.63
2022-12-31T07:10:12.804Z,11.07
2022-12-31T07:12:45.961Z,9.40
2022-12-31T07:15:35.761Z,11.10
2022-12-31T07:18:14.736Z,10.00
2022-12-31T07:20:41.995Z,10.75
2022-12-31T07:23:10.979Z,25.90
2022-12-31T07:25:41.617Z,14.43
2022-12-31T07:28:21.043Z,14.15
2022-12-31T07:30:53.626Z,16.75
2022-12-31T07:33:58.967Z,14.63
2022-12-31T07:36:44.109Z,9.98
2022-12-31T07:39:16.746Z,10.97
2022-12-31T07:41:52.252Z,13.80
2022-12-31T07:44:39.670Z,18.37
2022-12-31T07:47:13.267Z,27.13
2022-12-31T07:49:41.610Z,31.35
2022-12-31T07:52:09.200Z,27.65
2022-12-31T07:54:36.302Z,23.27
2022-12-31T07:57:03.658Z,20.20
2022-12-31T07:59:36.712Z,20.48
2022-12-31T08:02:12.381Z,18.13
2022-12-31T08:04:43.150Z,16.98
2022-12-31T08:07:22.650Z,17.63
2022-12-31T08:09:53.590Z,20.40
2022-12-31T08:12:21.741Z,20.55
2022-12-31T08:14:49.160Z,20.95
2022-12-31T08:17:18.157Z,18.92
2022-12-31T08:19:48.452Z,19.00
2022-12-31T08:22:23.131Z,18.48
2022-12-31T08:25:01.846Z,19.35
2022-12-31T08:27:38.127Z,17.70
2022-12-31T08:30:08.419Z,19.70
2022-12-31T08:32:54.418Z,19.90
2022-12-31T08:35:41.181Z,20.55
2022-12-31T08:38:44.252Z,22.20
2022-12-31T08:41:20.941Z,21.00
2022-12-31T08:43:58.595Z,21.90
2022-12-31T08:46:34.730Z,22.63
2022-12-31T08:49:02.074Z,21.23
2022-12-31T08:51:29.321Z,21.83
2022-12-31T08:53:56.678Z,21.42
2022-12-31T08:56:30.477Z,22.88
2022-12-31T08:59:25.576Z,19.73
2022-12-31T09:02:08.223Z,16.77
2022-12-31T09:04:55.789Z,17.13
2022-12-31T09:07:28.360Z,17.35
2022-12-31T09:10:02.347Z,15.93
2022-12-31T09:12:36.094Z,17.02
2022-12-31T09:15:18.685Z,18.58
2022-12-31T09:17:47.164Z,17.10
2022-12-31T09:20:16.571Z,16.48
2022-12-31T09:22:43.977Z,15.68
2022-12-31T09:25:15.598Z,16.35
2022-12-31T09:27:58.342Z,15.55
2022-12-31T09:30:26.772Z,15.90
2022-12-31T09:33:05.029Z,17.17
2022-12-31T09:35:38.256Z,16.73
2022-12-31T09:38:11.912Z,16.35
2022-12-31T09:40:48.386Z,17.40
2022-12-31T09:43:34.119Z,15.98
2022-12-31T09:46:19.428Z,14.52
2022-12-31T09:49:04.952Z,13.45
2022-12-31T09:51:33.004Z,13.23
2022-12-31T09:54:00.147Z,11.32
2022-12-31T09:56:30.451Z,11.45
2022-12-31T09:59:03.329Z,10.68
2022-12-31T10:01:39.655Z,9.32
2022-12-31T10:04:27.976Z,8.70
2022-12-31T10:07:03.927Z,8.80
2022-12-31T10:09:51.169Z,8.43
2022-12-31T10:14:52.055Z,10.02
2022-12-31T10:17:19.111Z,12.00
2022-12-31T10:19:58.562Z,9.95
2022-12-31T10:22:50.786Z,8.73
2022-12-31T10:25:37.946Z,8.93
2022-12-31T10:28:22.635Z,17.27
2022-12-31T10:30:59.655Z,22.55
2022-12-31T10:33:39.490Z,21.77
2022-12-31T10:36:18.207Z,24.23
2022-12-31T10:38:48.143Z,29.27
2022-12-31T10:41:21.621Z,29.27
2022-12-31T10:43:51.562Z,28.00
2022-12-31T10:46:35.623Z,28.08
2022-12-31T10:49:28.280Z,25.02
2022-12-31T10:51:55.471Z,25.65
2022-12-31T10:54:23.146Z,24.63
2022-12-31T10:57:07.633Z,28.55
2022-12-31T10:59:37.483Z,28.55
2022-12-31T11:02:11.008Z,32.65
2022-12-31T11:04:58.573Z,37.42
2022-12-31T11:07:31.504Z,35.97
2022-12-31T11:10:01.419Z,30.23
2022-12-31T11:12:44.011Z,33.10
2022-12-31T11:15:23.061Z,36.25
2022-12-31T11:18:08.671Z,35.55
2022-12-31T11:20:38.992Z,36.75
2022-12-31T11:23:08.821Z,36.78
2022-12-31T11:25:45.145Z,37.22
2022-12-31T11:28:15.465Z,35.92
2022-12-31T11:30:45.953Z,34.15
2022-12-31T11:33:21.211Z,35.38
2022-12-31T11:35:48.317Z,33.20
2022-12-31T11:38:21.594Z,31.75
2022-12-31T11:41:10.049Z,29.92
2022-12-31T11:43:44.455Z,24.90
2022-12-31T11:46:19.306Z,20.77
2022-12-31T11:49:18.748Z,18.23
2022-12-31T11:52:05.619Z,17.25
2022-12-31T11:54:45.084Z,17.15
2022-12-31T11:57:12.123Z,18.25
2022-12-31T11:59:39.210Z,15.70
2022-12-31T12:02:25.481Z,20.23
2022-12-31T12:05:02.729Z,14.18
2022-12-31T12:07:35.606Z,13.30
2022-12-31T12:10:04.733Z,13.52
2022-12-31T12:12:44.133Z,11.98
2022-12-31T12:15:18.526Z,14.43
2022-12-31T12:17:49.935Z,16.38
2022-12-31T12:20:20.215Z,15.88
2022-12-31T12:22:56.506Z,17.50
2022-12-31T12:25:25.875Z,16.67
2022-12-31T12:27:53.094Z,17.70
2022-12-31T12:30:21.618Z,11.82
2022-12-31T12:32:52.641Z,8.25
2022-12-31T12:35:24.915Z,7.95
2022-12-31T12:37:58.805Z,6.95
2022-12-31T12:40:33.404Z,4.95
2022-12-31T12:43:01.656Z,5.60
2022-12-31T12:45:36.841Z,4.55
2022-12-31T12:48:09.275Z,5.53
2022-12-31T12:50:42.077Z,6.18
2022-12-31T12:53:16.182Z,6.47
2022-12-31T12:55:49.344Z,6.38
2022-12-31T12:58:19.693Z,5.72
2022-12-31T13:01:07.088Z,7.05
2022-12-31T13:04:23.724Z,7.53
2022-12-31T13:06:42.745Z,7.97
2022-12-31T13:09:28.520Z,9.25
2022-12-31T13:11:55.564Z,9.85
2022-12-31T13:14:22.652Z,11.23
2022-12-31T13:16:57.597Z,12.40
2022-12-31T13:19:43.426Z,12.38
2022-12-31T13:22:14.865Z,11.15
2022-12-31T13:25:02.746Z,10.57
2022-12-31T13:27:38.175Z,10.30
2022-12-31T13:32:43.505Z,11.48
2022-12-31T13:35:28.532Z,10.80
2022-12-31T13:38:05.551Z,9.53
2022-12-31T13:40:48.611Z,10.60
2022-12-31T13:43:18.433Z,8.30
2022-12-31T13:45:46.577Z,7.57
2022-12-31T13:48:16.363Z,8.20
2022-12-31T13:50:53.199Z,7.63
2022-12-31T13:53:29.778Z,8.90
2022-12-31T13:55:59.451Z,7.20
2022-12-31T13:58:29.111Z,6.13
2022-12-31T14:00:59.028Z,7.80
2022-12-31T14:03:42.690Z,7.20
2022-12-31T14:06:25.782Z,6.70
2022-12-31T14:08:53.699Z,6.80
2022-12-31T14:11:30.078Z,8.55
2022-12-31T14:14:17.037Z,7.30
2022-12-31T14:17:17.871Z,6.95
2022-12-31T14:19:55.589Z,5.85
2022-12-31T14:22:43.899Z,5.97
2022-12-31T14:25:17.083Z,6.45
2022-12-31T14:27:45.480Z,6.50
2022-12-31T14:30:16.039Z,5.95
2022-12-31T14:32:53.996Z,7.38
2022-12-31T14:35:40.059Z,7.47
2022-12-31T14:40:40.194Z,11.02
2022-12-31T14:43:31.033Z,10.93
2022-12-31T14:45:58.199Z,12.52
2022-12-31T14:48:38.404Z,13.65
2022-12-31T14:51:05.824Z,14.93
2022-12-31T14:53:33.145Z,15.13
2022-12-31T14:56:05.663Z,14.70
2022-12-31T14:58:37.394Z,15.70
2022-12-31T15:01:26.295Z,15.02
2022-12-31T15:03:57.694Z,15.48
2022-12-31T15:06:24.881Z,14.60
2022-12-31T15:09:13.308Z,15.52
2022-12-31T15:11:51.093Z,16.27
2022-12-31T15:14:37.869Z,15.90
2022-12-31T15:17:11.316Z,16.85
2022-12-31T15:19:44.379Z,16.73
2022-12-31T15:22:30.382Z,18.23
2022-12-31T15:27:36.021Z,17.60
2022-12-31T15:30:06.806Z,19.27
2022-12-31T15:32:40.932Z,19.20
2022-12-31T15:35:23.328Z,20.88
2022-12-31T15:38:04.913Z,23.77
2022-12-31T15:40:42.557Z,25.40
2022-12-31T15:43:27.480Z,26.58
2022-12-31T15:45:55.452Z,23.88
2022-12-31T15:48:37.905Z,24.45
2022-12-31T15:51:05.267Z,25.02
2022-12-31T15:53:38.762Z,29.50
2022-12-31T15:56:07.443Z,29.65
2022-12-31T15:58:38.406Z,28.23
2022-12-31T16:01:10.089Z,26.63
2022-12-31T16:03:37.699Z,29.83
2022-12-31T16:06:16.063Z,28.95
2022-12-31T16:08:48.289Z,30.17
2022-12-31T16:11:16.180Z,31.35
2022-12-31T16:13:45.752Z,29.60
2022-12-31T16:16:22.650Z,32.13
2022-12-31T16:18:50.566Z,34.75
2022-12-31T16:21:23.555Z,33.10
2022-12-31T16:23:54.074Z,39.28
2022-12-31T16:26:23.462Z,44.03
2022-12-31T16:28:50.763Z,34.35
2022-12-31T16:31:20.126Z,38.42
2022-12-31T16:33:47.523Z,38.53
2022-12-31T16:36:16.970Z,39.13
2022-12-31T16:38:44.072Z,37.13
2022-12-31T16:41:21.639Z,35.22
2022-12-31T16:43:49.822Z,35.67
2022-12-31T16:46:23.145Z,38.58
2022-12-31T16:48:54.376Z,39.35
2022-12-31T16:51:24.245Z,40.45
2022-12-31T16:53:52.250Z,40.28
2022-12-31T16:56:24.401Z,44.53
2022-12-31T16:58:56.395Z,43.10
2022-12-31T17:01:28.557Z,44.40
2022-12-31T17:03:58.283Z,45.25
2022-12-31T17:06:27.332Z,51.35
2022-12-31T17:08:59.009Z,49.40
2022-12-31T17:11:29.078Z,44.13
2022-12-31T17:14:16.579Z,43.95
2022-12-31T17:17:01.672Z,45.35
2022-12-31T17:21:56.885Z,52.97
2022-12-31T17:24:24.031Z,51.50
2022-12-31T17:26:51.934Z,51.88
2022-12-31T17:29:26.105Z,53.25
2022-12-31T17:32:00.861Z,65.45
2022-12-31T17:34:40.349Z,83.90
2022-12-31T17:37:09.457Z,82.40
2022-12-31T17:39:44.868Z,74.63
2022-12-31T17:42:12.592Z,69.38
2022-12-31T17:44:41.347Z,70.10
2022-12-31T17:47:12.870Z,74.68
2022-12-31T17:49:41.048Z,89.50
2022-12-31T17:52:14.772Z,79.07
2022-12-31T17:54:42.500Z,72.65
2022-12-31T17:57:22.020Z,74.70
2022-12-31T17:59:49.216Z,76.40
2022-12-31T18:02:16.534Z,57.63
2022-12-31T18:04:43.718Z,76.25
2022-12-31T18:07:10.907Z,62.78
2022-12-31T18:09:37.968Z,44.60
2022-12-31T18:12:06.355Z,43.05
2022-12-31T18:14:33.782Z,47.33
2022-12-31T18:17:01.205Z,43.15
2022-12-31T18:22:16.358Z,35.83
2022-12-31T18:24:44.335Z,38.47
2022-12-31T18:27:20.518Z,38.50
2022-12-31T18:29:47.575Z,36.38
2022-12-31T18:32:14.965Z,33.90
2022-12-31T18:34:42.188Z,35.63
2022-12-31T18:37:21.465Z,34.10
2022-12-31T18:39:49.475Z,33.50
2022-12-31T18:42:18.020Z,33.08
2022-12-31T18:44:45.531Z,34.70
2022-12-31T18:47:16.593Z,35.40
2022-12-31T18:49:45.126Z,34.55
2022-12-31T18:52:16.094Z,32.47
2022-12-31T18:54:43.788Z,33.75
2022-12-31T18:57:11.963Z,30.33
2022-12-31T18:59:39.400Z,33.63
2022-12-31T19:02:12.450Z,31.60
2022-12-31T19:04:39.600Z,31.33
2022-12-31T19:07:06.604Z,28.92
2022-12-31T19:09:53.029Z,27.60
2022-12-31T19:12:21.613Z,27.13
2022-12-31T19:14:48.773Z,28.55
2022-12-31T19:17:15.928Z,29.80
2022-12-31T19:19:43.180Z,28.30
2022-12-31T19:22:13.925Z,28.65
2022-12-31T19:24:41.096Z,28.17
2022-12-31T19:27:09.989Z,28.83
2022-12-31T19:29:38.714Z,30.88
2022-12-31T19:32:06.185Z,29.67
2022-12-31T19:34:33.352Z,29.20
2022-12-31T19:37:00.415Z,28.30
2022-12-31T19:39:27.537Z,28.98
2022-12-31T19:41:58.832Z,30.00
2022-12-31T19:44:26.519Z,29.13
2022-12-31T19:46:53.668Z,28.08
2022-12-31T19:49:20.912Z,29.52
2022-12-31T19:51:48.137Z,28.33
2022-12-31T19:54:15.286Z,28.63
2022-12-31T19:56:42.439Z,28.45
2022-12-31T19:59:10.754Z,29.23
2022-12-31T20:01:38.063Z,29.42
2022-12-31T20:04:05.409Z,30.05
2022-12-31T20:06:32.508Z,32.88
2022-12-31T20:08:59.551Z,40.22
2022-12-31T20:11:26.821Z,39.00
2022-12-31T20:13:54.304Z,40.03
2022-12-31T20:16:23.008Z,39.55
2022-12-31T20:18:50.912Z,40.08
2022-12-31T20:21:19.568Z,41.42
2022-12-31T20:23:47.571Z,39.28
2022-12-31T20:26:14.971Z,40.35
2022-12-31T20:28:42.142Z,42.67
2022-12-31T20:31:11.165Z,41.03
2022-12-31T20:33:38.487Z,41.33
2022-12-31T20:36:06.424Z,42.38
2022-12-31T20:38:33.864Z,42.92
2022-12-31T20:41:04.929Z,41.65
2022-12-31T20:43:33.080Z,40.15
2022-12-31T20:46:00.554Z,39.55
2022-12-31T20:48:27.811Z,36.70
2022-12-31T20:50:58.069Z,36.35
2022-12-31T20:53:25.271Z,33.70
2022-12-31T20:55:52.453Z,31.52
2022-12-31T20:58:19.583Z,29.17
2022-12-31T21:00:50.859Z,29.42
2022-12-31T21:03:53.474Z,29.45
2022-12-31T21:06:05.991Z,31.20
2022-12-31T21:08:35.185Z,28.75
2022-12-31T21:11:03.138Z,28.90
2022-12-31T21:13:31.303Z,28.85
2022-12-31T21:15:58.543Z,27.35
2022-12-31T21:18:25.643Z,29.73
2022-12-31T21:20:53.500Z,28.13
2022-12-31T21:23:20.682Z,29.98
2022-12-31T21:25:50.223Z,28.65
2022-12-31T21:28:17.416Z,28.52
2022-12-31T21:30:44.667Z,26.80
2022-12-31T21:33:11.756Z,26.23
2022-12-31T21:35:48.338Z,26.83
2022-12-31T21:38:18.908Z,29.38
2022-12-31T21:40:46.198Z,25.23
2022-12-31T21:43:13.516Z,27.45
2022-12-31T21:45:41.015Z,32.90
2022-12-31T21:48:20.200Z,33.88
2022-12-31T21:50:48.831Z,30.33
2022-12-31T21:53:23.455Z,35.97
2022-12-31T21:56:11.787Z,29.90
2022-12-31T21:58:40.952Z,34.08
2022-12-31T22:01:28.702Z,33.85
2022-12-31T22:03:55.931Z,32.28
2022-12-31T22:06:23.625Z,27.52
2022-12-31T22:08:54.612Z,24.15
2022-12-31T22:11:23.025Z,23.48
2022-12-31T22:13:52.632Z,25.02
2022-12-31T22:16:20.514Z,28.23
2022-12-31T22:18:47.999Z,27.60
2022-12-31T22:21:20.540Z,26.13
2022-12-31T22:23:58.904Z,26.48
2022-12-31T22:26:27.984Z,23.05
2022-12-31T22:28:59.534Z,21.75
2022-12-31T22:31:30.190Z,22.38
2022-12-31T22:33:58.077Z,20.48
2022-12-31T22:36:25.229Z,22.10
2022-12-31T22:38:55.676Z,21.50
2022-12-31T22:41:23.351Z,20.17
2022-12-31T22:43:53.421Z,22.17
2022-12-31T22:46:23.482Z,21.88
2022-12-31T22:48:51.448Z,22.25
2022-12-31T22:51:19.463Z,24.42
2022-12-31T22:53:46.988Z,30.80
2022-12-31T22:56:15.570Z,30.15
2022-12-31T22:58:42.788Z,33.30
2022-12-31T23:01:20.661Z,35.05
2022-12-31T23:03:49.201Z,34.55
2022-12-31T23:06:17.015Z,43.78
2022-12-31T23:09:04.363Z,85.65
2022-12-31T23:11:35.068Z,131.27
2022-12-31T23:14:22.386Z,160.65
2022-12-31T23:17:31.041Z,165.48
2022-12-31T23:20:14.399Z,185.77
2022-12-31T23:22:59.856Z,215.45
2022-12-31T23:25:27.002Z,215.82
2022-12-31T23:27:54.166Z,183.77
2022-12-31T23:30:21.405Z,194.32
2022-12-31T23:32:48.610Z,193.70
2022-12-31T23:35:15.956Z,133.65
2022-12-31T23:37:43.098Z,130.82
2022-12-31T23:40:13.288Z,107.32
2022-12-31T23:42:42.831Z,110.05
2022-12-31T23:45:10.144Z,101.57
2022-12-31T23:47:37.736Z,119.85
2022-12-31T23:50:05.239Z,115.95
2022-12-31T23:52:32.397Z,129.63
2022-12-31T23:54:59.561Z,124.80
2022-12-31T23:57:26.717Z,128.00
2022-12-31T23:59:53.866Z,120.35
